createdAt,value
2022-10-21T00:01:28.575Z,9.70
2022-10-21T00:03:55.741Z,9.98
2022-10-21T00:06:22.946Z,10.75
2022-10-21T00:08:50.114Z,9.65
2022-10-21T00:11:17.280Z,11.07
2022-10-21T00:13:44.456Z,9.43
2022-10-21T00:16:13.041Z,8.25
2022-10-21T00:18:41.032Z,9.95
2022-10-21T00:21:09.195Z,7.50
2022-10-21T00:23:36.367Z,8.88
2022-10-21T00:26:04.171Z,7.45
2022-10-21T00:28:31.668Z,8.10
2022-10-21T00:30:58.829Z,9.82
2022-10-21T00:33:26.514Z,9.98
2022-10-21T00:35:58.257Z,9.38
2022-10-21T00:38:25.731Z,8.65
2022-10-21T00:40:53.010Z,8.43
2022-10-21T00:43:20.285Z,8.63
2022-10-21T00:45:49.242Z,10.13
2022-10-21T00:48:16.361Z,7.22
2022-10-21T00:50:50.280Z,8.90
2022-10-21T00:53:17.873Z,9.30
2022-10-21T00:55:48.435Z,7.10
2022-10-21T00:58:16.526Z,12.07
2022-10-21T01:00:43.687Z,9.32
2022-10-21T01:03:10.962Z,8.13
2022-10-21T01:05:39.216Z,8.27
2022-10-21T01:08:06.438Z,9.00
2022-10-21T01:10:33.569Z,8.43
2022-10-21T01:13:09.516Z,8.55
2022-10-21T01:15:40.820Z,10.40
2022-10-21T01:20:41.400Z,12.80
2022-10-21T01:23:25.099Z,10.68
2022-10-21T01:25:52.357Z,12.43
2022-10-21T01:28:22.277Z,10.45
2022-10-21T01:30:52.220Z,9.93
2022-10-21T01:33:30.749Z,10.88
2022-10-21T01:36:06.757Z,12.40
2022-10-21T01:38:42.973Z,11.38
2022-10-21T01:41:10.043Z,11.50
2022-10-21T01:43:43.497Z,11.02
2022-10-21T01:46:15.860Z,13.20
2022-10-21T01:48:46.117Z,11.35
2022-10-21T01:51:13.398Z,11.48
2022-10-21T01:53:44.222Z,10.70
2022-10-21T01:56:12.394Z,10.98
2022-10-21T01:58:41.553Z,11.07
2022-10-21T02:01:09.265Z,13.63
2022-10-21T02:03:38.386Z,12.27
2022-10-21T02:06:05.821Z,10.98
2022-10-21T02:08:33.013Z,8.18
2022-10-21T02:11:02.426Z,10.00
2022-10-21T02:13:35.215Z,9.30
2022-10-21T02:16:04.420Z,9.52
2022-10-21T02:18:31.538Z,7.97
2022-10-21T02:21:09.673Z,10.98
2022-10-21T02:23:53.723Z,10.38
2022-10-21T02:26:25.275Z,8.52
2022-10-21T02:28:53.460Z,7.20
2022-10-21T02:31:40.945Z,11.30
2022-10-21T02:34:43.627Z,8.90
2022-10-21T02:37:10.885Z,9.50
2022-10-21T02:39:40.846Z,7.38
2022-10-21T02:42:11.076Z,9.05
2022-10-21T02:44:38.221Z,7.88
2022-10-21T02:47:05.791Z,9.50
2022-10-21T02:49:33.100Z,7.97
2022-10-21T02:52:00.212Z,7.78
2022-10-21T02:54:27.339Z,8.40
2022-10-21T02:56:54.590Z,8.57
2022-10-21T02:59:21.686Z,8.02
2022-10-21T03:01:48.958Z,7.70
2022-10-21T03:04:16.208Z,9.23
2022-10-21T03:06:43.323Z,8.20
2022-10-21T03:09:10.454Z,10.13
2022-10-21T03:11:37.625Z,9.05
2022-10-21T03:14:04.775Z,8.68
2022-10-21T03:16:31.898Z,9.63
2022-10-21T03:18:59.104Z,8.65
2022-10-21T03:21:26.264Z,9.90
2022-10-21T03:23:53.401Z,10.25
2022-10-21T03:26:20.677Z,8.50
2022-10-21T03:28:47.792Z,9.35
2022-10-21T03:31:15.025Z,8.70
2022-10-21T03:33:42.242Z,10.70
2022-10-21T03:36:09.387Z,10.73
2022-10-21T03:38:36.512Z,9.40
2022-10-21T03:41:03.699Z,10.77
2022-10-21T03:43:30.841Z,10.30
2022-10-21T03:45:57.945Z,10.30
2022-10-21T03:48:25.178Z,10.15
2022-10-21T03:50:52.326Z,10.45
2022-10-21T03:53:41.438Z,11.27
2022-10-21T03:56:06.870Z,11.93
2022-10-21T03:58:35.691Z,10.20
2022-10-21T04:01:02.925Z,9.30
2022-10-21T04:03:30.219Z,10.23
2022-10-21T04:05:57.317Z,10.50
2022-10-21T04:08:24.416Z,15.00
2022-10-21T04:10:51.707Z,14.20
2022-10-21T04:13:18.941Z,18.50
2022-10-21T04:15:46.147Z,18.45
2022-10-21T04:18:13.429Z,19.75
2022-10-21T04:20:40.578Z,22.73
2022-10-21T04:23:07.696Z,25.35
2022-10-21T04:25:34.873Z,27.42
2022-10-21T04:28:02.005Z,29.25
2022-10-21T04:30:29.114Z,28.25
2022-10-21T04:32:56.305Z,29.55
2022-10-21T04:35:23.444Z,25.27
2022-10-21T04:37:50.551Z,23.38
2022-10-21T04:40:17.881Z,25.25
2022-10-21T04:42:48.547Z,25.17
2022-10-21T04:45:15.866Z,23.40
2022-10-21T04:47:43.122Z,25.40
2022-10-21T04:50:10.247Z,25.77
2022-10-21T04:52:38.050Z,28.23
2022-10-21T04:55:05.691Z,26.38
2022-10-21T04:57:33.045Z,22.85
2022-10-21T05:00:00.187Z,26.70
2022-10-21T05:02:27.380Z,26.00
2022-10-21T05:04:54.505Z,24.92
2022-10-21T05:07:21.632Z,22.90
2022-10-21T05:09:48.809Z,22.27
2022-10-21T05:12:15.973Z,20.10
2022-10-21T05:14:43.094Z,20.45
2022-10-21T05:17:10.331Z,21.33
2022-10-21T05:19:37.543Z,21.90
2022-10-21T05:22:04.694Z,19.52
2022-10-21T05:24:31.968Z,18.58
2022-10-21T05:26:59.092Z,18.88
2022-10-21T05:29:26.193Z,17.25
2022-10-21T05:31:53.436Z,17.88
2022-10-21T05:34:20.557Z,16.05
2022-10-21T05:36:49.070Z,15.32
2022-10-21T05:39:16.565Z,16.48
2022-10-21T05:41:47.001Z,21.75
2022-10-21T05:44:15.329Z,23.40
2022-10-21T05:46:42.627Z,20.05
2022-10-21T05:49:09.780Z,17.38
2022-10-21T05:51:36.888Z,21.58
2022-10-21T05:54:05.533Z,17.75
2022-10-21T05:56:33.001Z,19.13
2022-10-21T05:59:00.162Z,19.05
2022-10-21T06:01:27.464Z,20.40
2022-10-21T06:03:54.617Z,22.13
2022-10-21T06:06:21.749Z,18.27
2022-10-21T06:08:49.060Z,23.33
2022-10-21T06:11:17.506Z,18.02
2022-10-21T06:13:45.059Z,15.68
2022-10-21T06:16:12.728Z,18.77
2022-10-21T06:18:40.344Z,16.70
2022-10-21T06:21:08.025Z,20.48
2022-10-21T06:23:35.679Z,25.90
2022-10-21T06:26:04.742Z,18.27
2022-10-21T06:28:32.850Z,21.83
2022-10-21T06:31:00.165Z,20.52
2022-10-21T06:33:27.510Z,23.65
2022-10-21T06:35:55.481Z,21.50
2022-10-21T06:38:23.366Z,19.50
2022-10-21T06:40:50.500Z,17.08
2022-10-21T06:43:17.733Z,20.25
2022-10-21T06:45:45.029Z,20.67
2022-10-21T06:48:13.600Z,21.00
2022-10-21T06:50:40.828Z,25.35
2022-10-21T06:53:08.048Z,22.92
2022-10-21T06:55:35.332Z,20.55
2022-10-21T06:58:02.475Z,16.83
2022-10-21T07:02:57.798Z,18.65
2022-10-21T07:05:24.910Z,21.20
2022-10-21T07:07:52.563Z,24.23
2022-10-21T07:10:19.803Z,23.67
2022-10-21T07:12:46.994Z,23.77
2022-10-21T07:15:14.962Z,19.75
2022-10-21T07:17:42.289Z,24.42
2022-10-21T07:20:09.710Z,19.65
2022-10-21T07:22:37.009Z,18.50
2022-10-21T07:25:04.295Z,20.75
2022-10-21T07:27:31.427Z,21.27
2022-10-21T07:29:58.687Z,19.25
2022-10-21T07:32:25.810Z,19.60
2022-10-21T07:34:52.929Z,20.40
2022-10-21T07:37:20.239Z,20.38
2022-10-21T07:39:47.372Z,17.13
2022-10-21T07:42:14.496Z,18.88
2022-10-21T07:44:41.796Z,20.65
2022-10-21T07:47:08.908Z,17.60
2022-10-21T07:49:36.028Z,21.30
2022-10-21T07:52:03.367Z,18.70
2022-10-21T07:54:30.504Z,20.98
2022-10-21T07:56:58.501Z,19.67
2022-10-21T07:59:25.707Z,15.20
2022-10-21T08:01:53.223Z,15.93
2022-10-21T08:04:22.326Z,18.52
2022-10-21T08:06:50.140Z,17.00
2022-10-21T08:09:18.023Z,21.08
2022-10-21T08:11:45.412Z,16.17
2022-10-21T08:14:12.829Z,18.35
2022-10-21T08:16:40.453Z,14.68
2022-10-21T08:19:08.427Z,15.73
2022-10-21T08:21:37.219Z,14.23
2022-10-21T08:24:04.599Z,14.88
2022-10-21T08:26:31.774Z,17.42
2022-10-21T08:31:32.520Z,18.02
2022-10-21T08:33:59.783Z,16.50
2022-10-21T08:36:26.915Z,15.80
2022-10-21T08:38:54.632Z,15.02
2022-10-21T08:41:27.755Z,16.20
2022-10-21T08:43:58.956Z,19.58
2022-10-21T08:48:56.198Z,12.70
2022-10-21T08:51:46.316Z,11.45
2022-10-21T08:54:16.813Z,12.60
2022-10-21T08:56:44.365Z,8.50
2022-10-21T08:59:22.317Z,8.63
2022-10-21T09:02:07.977Z,9.95
2022-10-21T09:04:55.744Z,11.30
2022-10-21T09:07:29.107Z,11.68
2022-10-21T09:10:01.527Z,9.65
2022-10-21T09:12:34.478Z,10.50
2022-10-21T09:15:11.161Z,8.40
2022-10-21T09:18:03.857Z,10.80
2022-10-21T09:20:31.124Z,8.35
2022-10-21T09:22:58.279Z,8.90
2022-10-21T09:25:28.298Z,10.57
2022-10-21T09:27:57.144Z,8.80
2022-10-21T09:30:25.135Z,9.77
2022-10-21T09:32:56.359Z,10.35
2022-10-21T09:37:57.656Z,8.35
2022-10-21T09:40:26.529Z,10.45
2022-10-21T09:42:56.005Z,9.95
2022-10-21T09:45:39.813Z,11.02
2022-10-21T09:48:14.680Z,8.45
2022-10-21T09:50:42.197Z,8.40
2022-10-21T09:53:14.123Z,8.35
2022-10-21T09:55:41.418Z,10.50
2022-10-21T09:58:08.713Z,11.23
2022-10-21T10:00:43.184Z,9.52
2022-10-21T10:03:10.741Z,12.80
2022-10-21T10:05:40.868Z,11.18
2022-10-21T10:08:26.903Z,11.00
2022-10-21T10:11:01.847Z,9.00
2022-10-21T10:13:31.617Z,9.52
2022-10-21T10:16:16.811Z,11.48
2022-10-21T10:18:44.602Z,10.73
2022-10-21T10:21:12.930Z,9.85
2022-10-21T10:23:44.637Z,9.23
2022-10-21T10:26:12.369Z,12.23
2022-10-21T10:31:11.825Z,10.77
2022-10-21T10:33:38.997Z,10.57
2022-10-21T10:36:09.348Z,12.60
2022-10-21T10:38:45.550Z,10.70
2022-10-21T10:41:14.902Z,12.23
2022-10-21T10:44:00.608Z,12.07
2022-10-21T10:46:29.256Z,10.43
2022-10-21T10:48:57.115Z,11.93
2022-10-21T10:51:35.205Z,11.98
2022-10-21T10:54:08.367Z,9.35
2022-10-21T10:56:35.656Z,9.18
2022-10-21T10:59:11.930Z,8.45
2022-10-21T11:01:42.342Z,8.48
2022-10-21T11:04:21.972Z,10.05
2022-10-21T11:06:51.415Z,7.45
2022-10-21T11:09:23.769Z,14.60
2022-10-21T11:11:55.351Z,8.75
2022-10-21T11:14:23.239Z,8.23
2022-10-21T11:17:00.099Z,6.28
2022-10-21T11:19:46.272Z,5.88
2022-10-21T11:22:16.363Z,6.03
2022-10-21T11:24:45.417Z,6.32
2022-10-21T11:27:19.165Z,8.13
2022-10-21T11:30:04.853Z,8.15
2022-10-21T11:32:56.651Z,7.60
2022-10-21T11:35:23.860Z,7.65
2022-10-21T11:38:08.472Z,8.20
2022-10-21T11:40:50.831Z,6.32
2022-10-21T11:43:43.909Z,7.47
2022-10-21T11:46:23.293Z,6.65
2022-10-21T11:48:56.106Z,4.57
2022-10-21T11:51:23.278Z,4.43
2022-10-21T11:53:59.526Z,4.30
2022-10-21T11:56:33.144Z,5.43
2022-10-21T11:59:00.329Z,5.05
2022-10-21T12:01:27.426Z,7.05
2022-10-21T12:04:06.957Z,4.15
2022-10-21T12:06:34.813Z,3.83
2022-10-21T12:09:34.520Z,9.25
2022-10-21T12:12:11.269Z,3.38
2022-10-21T12:14:41.186Z,5.78
2022-10-21T12:17:11.353Z,4.30
2022-10-21T12:19:38.651Z,5.47
2022-10-21T12:22:06.166Z,4.97
2022-10-21T12:25:11.810Z,6.10
2022-10-21T12:27:43.302Z,5.18
2022-10-21T12:30:12.858Z,4.20
2022-10-21T12:32:52.432Z,7.05
2022-10-21T12:35:27.420Z,7.22
2022-10-21T12:37:59.844Z,4.63
2022-10-21T12:40:32.553Z,6.75
2022-10-21T12:43:01.287Z,8.77
2022-10-21T12:45:31.208Z,8.10
2022-10-21T12:47:58.689Z,6.75
2022-10-21T12:50:30.469Z,7.50
2022-10-21T12:53:16.540Z,10.15
2022-10-21T12:55:49.331Z,12.93
2022-10-21T12:58:37.700Z,16.65
2022-10-21T13:01:05.685Z,13.82
2022-10-21T13:03:52.869Z,13.48
2022-10-21T13:06:40.077Z,13.73
2022-10-21T13:12:05.212Z,7.75
2022-10-21T13:14:52.583Z,12.15
2022-10-21T13:17:23.045Z,8.00
2022-10-21T13:19:54.037Z,6.85
2022-10-21T13:22:34.637Z,6.50
2022-10-21T13:25:17.007Z,6.43
2022-10-21T13:27:45.569Z,6.25
2022-10-21T13:30:28.361Z,7.72
2022-10-21T13:33:05.907Z,6.80
2022-10-21T13:35:42.075Z,6.93
2022-10-21T13:38:18.445Z,12.43
2022-10-21T13:40:50.531Z,7.65
2022-10-21T13:43:19.672Z,10.02
2022-10-21T13:45:51.243Z,9.60
2022-10-21T13:48:19.850Z,7.28
2022-10-21T13:50:48.892Z,5.00
2022-10-21T13:53:19.170Z,7.35
2022-10-21T13:55:55.826Z,5.43
2022-10-21T13:58:23.709Z,6.55
2022-10-21T14:00:55.019Z,5.70
2022-10-21T14:03:26.252Z,5.75
2022-10-21T14:06:01.194Z,9.02
2022-10-21T14:08:28.635Z,5.90
2022-10-21T14:10:59.720Z,6.03
2022-10-21T14:13:29.119Z,5.85
2022-10-21T14:15:57.017Z,12.10
2022-10-21T14:18:32.375Z,7.75
2022-10-21T14:21:02.458Z,6.45
2022-10-21T14:23:30.293Z,9.75
2022-10-21T14:26:09.946Z,7.65
2022-10-21T14:28:37.699Z,7.15
2022-10-21T14:31:11.951Z,7.57
2022-10-21T14:33:41.805Z,7.90
2022-10-21T14:36:14.989Z,5.25
2022-10-21T14:38:44.501Z,5.72
2022-10-21T14:41:17.183Z,5.70
2022-10-21T14:43:45.562Z,8.48
2022-10-21T14:46:12.869Z,6.65
2022-10-21T14:48:39.982Z,6.25
2022-10-21T14:51:09.624Z,7.93
2022-10-21T14:53:38.083Z,6.93
2022-10-21T14:56:06.747Z,6.45
2022-10-21T14:58:38.619Z,11.00
2022-10-21T15:01:18.128Z,6.15
2022-10-21T15:03:45.463Z,8.68
2022-10-21T15:06:34.774Z,9.25
2022-10-21T15:09:02.092Z,8.15
2022-10-21T15:11:29.493Z,11.77
2022-10-21T15:13:57.248Z,9.80
2022-10-21T15:16:26.891Z,12.88
2022-10-21T15:18:54.541Z,13.55
2022-10-21T15:21:27.529Z,9.32
2022-10-21T15:23:56.654Z,12.73
2022-10-21T15:26:25.054Z,14.05
2022-10-21T15:28:53.059Z,10.38
2022-10-21T15:31:25.617Z,11.85
2022-10-21T15:33:54.081Z,10.88
2022-10-21T15:36:21.578Z,15.75
2022-10-21T15:38:49.005Z,12.45
2022-10-21T15:41:17.843Z,14.77
2022-10-21T15:43:51.262Z,11.75
2022-10-21T15:46:21.588Z,11.18
2022-10-21T15:48:48.757Z,8.33
2022-10-21T15:51:15.909Z,12.00
2022-10-21T15:53:44.566Z,14.85
2022-10-21T15:56:19.190Z,10.65
2022-10-21T15:58:46.708Z,11.27
2022-10-21T16:01:16.059Z,16.45
2022-10-21T16:03:43.965Z,17.08
2022-10-21T16:06:15.185Z,13.38
2022-10-21T16:11:13.574Z,12.73
2022-10-21T16:16:19.963Z,13.38
2022-10-21T16:18:47.805Z,13.43
2022-10-21T16:21:15.936Z,13.15
2022-10-21T16:23:43.442Z,13.10
2022-10-21T16:26:33.155Z,16.55
2022-10-21T16:29:00.301Z,13.43
2022-10-21T16:31:28.017Z,14.93
2022-10-21T16:33:55.349Z,17.10
2022-10-21T16:36:27.577Z,16.60
2022-10-21T16:38:54.748Z,13.57
2022-10-21T16:41:28.855Z,12.23
2022-10-21T16:43:56.505Z,20.75
2022-10-21T16:46:34.368Z,18.05
2022-10-21T16:49:04.510Z,17.08
2022-10-21T16:51:32.426Z,19.13
2022-10-21T16:53:59.699Z,13.38
2022-10-21T16:58:58.850Z,18.77
2022-10-21T17:01:26.324Z,11.38
2022-10-21T17:03:53.633Z,8.85
2022-10-21T17:06:22.441Z,9.10
2022-10-21T17:08:50.428Z,10.07
2022-10-21T17:11:20.378Z,6.60
2022-10-21T17:13:47.705Z,5.65
2022-10-21T17:16:15.661Z,7.93
2022-10-21T17:18:44.257Z,8.50
2022-10-21T17:21:17.598Z,8.70
2022-10-21T17:23:44.760Z,9.00
2022-10-21T17:26:11.942Z,8.52
2022-10-21T17:28:39.120Z,9.57
2022-10-21T17:31:06.276Z,9.63
2022-10-21T17:33:33.390Z,11.27
2022-10-21T17:36:00.647Z,11.48
2022-10-21T17:38:27.764Z,9.68
2022-10-21T17:40:54.858Z,12.55
2022-10-21T17:43:22.141Z,10.52
2022-10-21T17:45:49.240Z,8.85
2022-10-21T17:48:16.354Z,10.45
2022-10-21T17:50:43.552Z,12.88
2022-10-21T17:53:10.802Z,13.73
2022-10-21T17:55:37.905Z,18.67
2022-10-21T17:58:05.169Z,13.50
2022-10-21T18:00:32.319Z,17.65
2022-10-21T18:02:59.429Z,16.30
2022-10-21T18:05:26.617Z,14.18
2022-10-21T18:07:53.783Z,18.27
2022-10-21T18:10:20.917Z,22.67
2022-10-21T18:12:48.105Z,18.88
2022-10-21T18:15:15.355Z,14.38
2022-10-21T18:17:43.021Z,14.20
2022-10-21T18:20:10.781Z,10.48
2022-10-21T18:22:38.198Z,14.40
2022-10-21T18:25:05.711Z,15.23
2022-10-21T18:27:33.028Z,12.98
2022-10-21T18:30:00.192Z,15.23
2022-10-21T18:32:27.305Z,12.07
2022-10-21T18:34:54.560Z,17.15
2022-10-21T18:37:21.665Z,14.30
2022-10-21T18:39:48.801Z,18.08
2022-10-21T18:42:15.993Z,17.38
2022-10-21T18:44:43.217Z,17.50
2022-10-21T18:47:10.479Z,20.60
2022-10-21T18:49:37.969Z,20.67
2022-10-21T18:52:05.642Z,19.67
2022-10-21T18:54:32.771Z,22.10
2022-10-21T18:56:59.937Z,20.70
2022-10-21T18:59:27.089Z,18.40
2022-10-21T19:01:54.977Z,19.50
2022-10-21T19:04:22.334Z,21.33
2022-10-21T19:06:49.508Z,19.75
2022-10-21T19:09:21.159Z,22.60
2022-10-21T19:11:48.456Z,20.17
2022-10-21T19:14:16.075Z,19.92
2022-10-21T19:16:44.164Z,26.77
2022-10-21T19:19:11.529Z,22.05
2022-10-21T19:21:38.706Z,20.33
2022-10-21T19:24:06.243Z,22.30
2022-10-21T19:26:34.441Z,17.17
2022-10-21T19:29:03.050Z,19.63
2022-10-21T19:31:32.391Z,20.50
2022-10-21T19:34:03.126Z,18.25
2022-10-21T19:36:30.249Z,21.13
2022-10-21T19:38:57.379Z,21.60
2022-10-21T19:41:24.683Z,19.63
2022-10-21T19:43:51.829Z,19.33
2022-10-21T19:46:23.455Z,21.80
2022-10-21T19:48:53.011Z,19.05
2022-10-21T19:51:21.549Z,21.10
2022-10-21T19:53:48.981Z,23.23
2022-10-21T19:56:18.085Z,20.75
2022-10-21T19:58:47.356Z,19.77
2022-10-21T20:01:15.826Z,21.30
2022-10-21T20:03:44.134Z,20.27
2022-10-21T20:08:45.951Z,23.58
2022-10-21T20:11:14.359Z,20.67
2022-10-21T20:13:42.096Z,19.02
2022-10-21T20:16:14.338Z,21.15
2022-10-21T20:18:44.483Z,21.75
2022-10-21T20:21:12.820Z,25.80
2022-10-21T20:23:40.114Z,26.80
2022-10-21T20:26:07.346Z,24.10
2022-10-21T20:28:34.759Z,23.80
2022-10-21T20:31:03.833Z,24.75
2022-10-21T20:33:32.269Z,28.73
2022-10-21T20:36:03.143Z,26.67
2022-10-21T20:38:30.420Z,28.90
2022-10-21T20:41:06.600Z,22.85
2022-10-21T20:43:37.386Z,27.50
2022-10-21T20:46:05.233Z,30.48
2022-10-21T20:48:32.490Z,28.02
2022-10-21T20:51:02.599Z,27.38
2022-10-21T20:53:31.298Z,26.02
2022-10-21T20:55:58.768Z,27.50
2022-10-21T20:58:26.179Z,26.60
2022-10-21T21:00:53.297Z,26.25
2022-10-21T21:03:20.598Z,25.52
2022-10-21T21:05:47.812Z,30.00
2022-10-21T21:08:15.009Z,29.67
2022-10-21T21:10:42.683Z,27.42
2022-10-21T21:13:09.926Z,25.88
2022-10-21T21:15:37.106Z,34.42
2022-10-21T21:18:10.172Z,24.77
2022-10-21T21:20:37.295Z,25.40
2022-10-21T21:23:04.426Z,25.98
2022-10-21T21:25:31.672Z,22.83
2022-10-21T21:27:58.810Z,23.83
2022-10-21T21:30:25.939Z,22.63
2022-10-21T21:32:53.193Z,23.40
2022-10-21T21:35:20.405Z,20.20
2022-10-21T21:37:47.530Z,21.85
2022-10-21T21:40:14.773Z,22.52
2022-10-21T21:42:42.207Z,22.85
2022-10-21T21:45:09.926Z,20.77
2022-10-21T21:47:37.216Z,20.65
2022-10-21T21:50:04.389Z,22.83
2022-10-21T21:52:32.233Z,23.05
2022-10-21T21:54:59.450Z,23.65
2022-10-21T21:57:28.145Z,24.55
2022-10-21T21:59:55.757Z,22.25
2022-10-21T22:02:22.943Z,22.88
2022-10-21T22:04:50.070Z,23.48
2022-10-21T22:07:17.213Z,25.15
2022-10-21T22:09:44.415Z,28.52
2022-10-21T22:12:14.421Z,27.00
2022-10-21T22:14:42.191Z,26.17
2022-10-21T22:17:09.432Z,26.83
2022-10-21T22:19:36.582Z,19.45
2022-10-21T22:22:03.723Z,25.92
2022-10-21T22:27:06.710Z,23.30
2022-10-21T22:29:33.844Z,26.95
2022-10-21T22:32:01.149Z,27.48
2022-10-21T22:34:28.284Z,27.45
2022-10-21T22:36:55.388Z,23.20
2022-10-21T22:39:22.711Z,24.48
2022-10-21T22:41:49.858Z,25.27
2022-10-21T22:44:17.037Z,26.40
2022-10-21T22:46:44.213Z,22.58
2022-10-21T22:49:11.397Z,24.10
2022-10-21T22:51:38.557Z,22.60
2022-10-21T22:54:11.570Z,22.10
2022-10-21T22:56:46.586Z,22.50
2022-10-21T22:59:13.757Z,21.08
2022-10-21T23:01:40.923Z,21.33
2022-10-21T23:04:08.054Z,17.48
2022-10-21T23:06:35.770Z,22.45
2022-10-21T23:09:03.870Z,19.75
2022-10-21T23:11:31.404Z,22.27
2022-10-21T23:14:03.230Z,19.63
2022-10-21T23:16:30.831Z,22.58
2022-10-21T23:18:57.978Z,17.65
2022-10-21T23:21:25.306Z,24.65
2022-10-21T23:23:52.703Z,23.55
2022-10-21T23:26:19.809Z,22.38
2022-10-21T23:28:46.990Z,19.85
2022-10-21T23:31:14.176Z,21.95
2022-10-21T23:33:41.415Z,20.73
2022-10-21T23:36:08.675Z,21.40
2022-10-21T23:38:35.800Z,22.95
2022-10-21T23:41:02.939Z,23.08
2022-10-21T23:43:30.134Z,22.15
2022-10-21T23:45:57.237Z,29.45
2022-10-21T23:48:24.351Z,24.63
2022-10-21T23:50:51.627Z,25.13
2022-10-21T23:53:18.738Z,21.58
2022-10-21T23:55:45.849Z,27.35
2022-10-21T23:58:13.481Z,25.42
